createdAt,value
2023-03-28T00:01:01.329Z,7.17
2023-03-28T00:03:35.864Z,8.37
2023-03-28T00:06:06.083Z,7.90
2023-03-28T00:08:34.463Z,7.30
2023-03-28T00:11:06.966Z,9.87
2023-03-28T00:13:35.275Z,7.53
2023-03-28T00:16:05.925Z,9.13
2023-03-28T00:18:37.646Z,10.33
2023-03-28T00:21:08.055Z,7.23
2023-03-28T00:23:36.453Z,6.20
2023-03-28T00:26:09.114Z,12.00
2023-03-28T00:28:38.028Z,6.90
2023-03-28T00:31:07.088Z,7.80
2023-03-28T00:33:36.992Z,12.20
2023-03-28T00:36:06.724Z,6.90
2023-03-28T00:38:35.012Z,8.13
2023-03-28T00:41:05.853Z,6.33
2023-03-28T00:43:41.221Z,11.83
2023-03-28T00:46:11.956Z,10.57
2023-03-28T00:48:44.396Z,8.30
2023-03-28T00:51:14.799Z,5.73
2023-03-28T00:53:43.927Z,4.70
2023-03-28T00:56:14.710Z,5.10
2023-03-28T00:58:44.912Z,7.83
2023-03-28T01:01:14.174Z,10.80
2023-03-28T01:03:46.425Z,7.17
2023-03-28T01:06:16.181Z,10.47
2023-03-28T01:08:47.081Z,9.27
2023-03-28T01:11:16.306Z,6.60
2023-03-28T01:13:47.526Z,10.20
2023-03-28T01:16:16.273Z,8.27
2023-03-28T01:18:47.044Z,9.17
2023-03-28T01:21:24.599Z,9.10
2023-03-28T01:24:11.719Z,12.63
2023-03-28T01:26:48.048Z,8.60
2023-03-28T01:29:25.626Z,7.60
2023-03-28T01:32:05.882Z,5.77
2023-03-28T01:34:54.860Z,7.43
2023-03-28T01:37:26.117Z,6.27
2023-03-28T01:39:59.751Z,8.23
2023-03-28T01:42:32.042Z,9.37
2023-03-28T01:45:06.091Z,9.93
2023-03-28T01:47:37.914Z,6.50
2023-03-28T01:50:10.327Z,10.60
2023-03-28T01:52:42.423Z,10.90
2023-03-28T01:55:12.369Z,9.07
2023-03-28T01:57:43.346Z,7.57
2023-03-28T02:00:15.783Z,8.37
2023-03-28T02:02:45.828Z,8.40
2023-03-28T02:05:15.970Z,9.20
2023-03-28T02:07:46.292Z,9.23
2023-03-28T02:10:16.106Z,7.23
2023-03-28T02:12:48.331Z,9.57
2023-03-28T02:15:18.139Z,9.10
2023-03-28T02:17:49.283Z,9.07
2023-03-28T02:20:19.401Z,6.63
2023-03-28T02:22:51.554Z,13.53
2023-03-28T02:25:19.994Z,6.63
2023-03-28T02:27:49.484Z,10.20
2023-03-28T02:30:17.806Z,11.67
2023-03-28T02:32:49.607Z,7.20
2023-03-28T02:35:18.753Z,7.93
2023-03-28T02:37:54.209Z,4.13
2023-03-28T02:40:28.796Z,7.40
2023-03-28T02:43:13.426Z,8.20
2023-03-28T02:45:56.632Z,6.30
2023-03-28T02:48:29.326Z,4.90
2023-03-28T02:51:06.181Z,6.00
2023-03-28T02:53:37.278Z,10.93
2023-03-28T02:56:07.618Z,6.50
2023-03-28T02:58:38.501Z,7.07
2023-03-28T03:01:07.267Z,8.00
2023-03-28T03:03:36.034Z,9.03
2023-03-28T03:06:04.286Z,5.73
2023-03-28T03:08:32.632Z,8.83
2023-03-28T03:11:02.230Z,6.77
2023-03-28T03:13:30.510Z,4.37
2023-03-28T03:15:58.889Z,6.20
2023-03-28T03:18:27.500Z,7.67
2023-03-28T03:20:55.797Z,9.20
2023-03-28T03:23:24.063Z,10.10
2023-03-28T03:25:52.939Z,8.60
2023-03-28T03:28:22.459Z,10.57
2023-03-28T03:30:50.742Z,9.47
2023-03-28T03:33:18.980Z,8.63
2023-03-28T03:35:47.274Z,8.10
2023-03-28T03:38:15.805Z,7.43
2023-03-28T03:40:44.055Z,9.37
2023-03-28T03:43:12.335Z,11.07
2023-03-28T03:45:42.022Z,8.73
2023-03-28T03:48:10.398Z,12.13
2023-03-28T03:50:38.854Z,6.23
2023-03-28T03:53:07.076Z,8.10
2023-03-28T03:55:35.388Z,7.80
2023-03-28T03:58:03.828Z,6.73
2023-03-28T04:00:32.074Z,8.47
2023-03-28T04:03:01.802Z,11.53
2023-03-28T04:05:30.083Z,9.33
2023-03-28T04:07:59.221Z,9.67
2023-03-28T04:10:27.423Z,9.07
2023-03-28T04:12:56.186Z,9.37
2023-03-28T04:15:24.470Z,13.37
2023-03-28T04:17:56.755Z,8.27
2023-03-28T04:20:31.642Z,9.60
2023-03-28T04:23:01.232Z,7.23
2023-03-28T04:25:29.870Z,6.63
2023-03-28T04:28:01.802Z,8.50
2023-03-28T04:30:30.080Z,6.50
2023-03-28T04:32:59.063Z,11.73
2023-03-28T04:35:29.859Z,12.43
2023-03-28T04:37:58.887Z,6.63
2023-03-28T04:40:29.420Z,14.77
2023-03-28T04:42:57.662Z,13.83
2023-03-28T04:45:26.753Z,10.97
2023-03-28T04:47:55.257Z,10.60
2023-03-28T04:50:23.551Z,11.07
2023-03-28T04:52:53.229Z,11.97
2023-03-28T04:55:21.455Z,15.57
2023-03-28T04:57:49.745Z,11.83
2023-03-28T05:00:18.615Z,12.67
2023-03-28T05:02:47.735Z,14.93
2023-03-28T05:05:16.190Z,12.73
2023-03-28T05:07:44.420Z,13.03
2023-03-28T05:10:14.375Z,12.70
2023-03-28T05:12:42.643Z,17.70
2023-03-28T05:15:11.159Z,14.60
2023-03-28T05:17:49.802Z,9.23
2023-03-28T05:20:18.730Z,12.27
2023-03-28T05:22:47.283Z,11.63
2023-03-28T05:25:17.028Z,13.27
2023-03-28T05:27:45.361Z,6.83
2023-03-28T05:30:14.190Z,11.03
2023-03-28T05:32:42.666Z,8.67
2023-03-28T05:35:11.905Z,8.33
2023-03-28T05:37:43.024Z,10.53
2023-03-28T05:40:13.059Z,8.30
2023-03-28T05:42:42.709Z,9.10
2023-03-28T05:45:12.410Z,10.43
2023-03-28T05:47:40.690Z,10.73
2023-03-28T05:50:11.244Z,9.20
2023-03-28T05:52:39.921Z,11.70
2023-03-28T05:55:08.726Z,17.03
2023-03-28T05:57:36.913Z,13.87
2023-03-28T06:00:13.710Z,16.27
2023-03-28T06:02:43.245Z,12.57
2023-03-28T06:05:12.112Z,10.13
2023-03-28T06:07:42.859Z,8.37
2023-03-28T06:10:12.565Z,14.77
2023-03-28T06:12:41.040Z,14.90
2023-03-28T06:15:11.233Z,10.63
2023-03-28T06:17:39.532Z,12.90
2023-03-28T06:20:10.262Z,7.20
2023-03-28T06:22:38.659Z,7.27
2023-03-28T06:25:07.515Z,14.67
2023-03-28T06:27:36.254Z,13.80
2023-03-28T06:30:05.115Z,11.80
2023-03-28T06:32:34.739Z,12.37
2023-03-28T06:35:02.938Z,17.27
2023-03-28T06:37:31.402Z,10.93
2023-03-28T06:39:59.622Z,11.17
2023-03-28T06:42:27.881Z,10.23
2023-03-28T06:44:56.120Z,10.50
2023-03-28T06:47:24.427Z,8.87
2023-03-28T06:49:54.232Z,11.27
2023-03-28T06:52:23.203Z,12.47
2023-03-28T06:54:51.711Z,11.03
2023-03-28T06:57:19.970Z,13.13
2023-03-28T06:59:48.342Z,9.37
2023-03-28T07:02:17.574Z,9.80
2023-03-28T07:04:45.948Z,9.33
2023-03-28T07:07:15.499Z,7.73
2023-03-28T07:09:43.730Z,10.47
2023-03-28T07:12:11.893Z,13.90
2023-03-28T07:14:44.400Z,17.83
2023-03-28T07:17:13.393Z,12.03
2023-03-28T07:19:41.621Z,10.73
2023-03-28T07:22:09.879Z,8.47
2023-03-28T07:24:39.488Z,12.17
2023-03-28T07:27:15.618Z,5.03
2023-03-28T07:29:44.690Z,11.93
2023-03-28T07:32:12.960Z,8.13
2023-03-28T07:34:41.200Z,9.70
2023-03-28T07:37:09.540Z,11.73
2023-03-28T07:39:41.868Z,10.17
2023-03-28T07:42:11.244Z,10.53
2023-03-28T07:44:41.773Z,9.97
2023-03-28T07:47:11.276Z,21.70
2023-03-28T07:49:40.938Z,10.93
2023-03-28T07:52:09.162Z,8.60
2023-03-28T07:54:38.791Z,6.43
2023-03-28T07:57:07.130Z,10.10
2023-03-28T07:59:35.791Z,10.77
2023-03-28T08:02:04.117Z,8.07
2023-03-28T08:04:32.300Z,6.00
2023-03-28T08:07:00.708Z,7.53
2023-03-28T08:09:29.276Z,12.53
2023-03-28T08:11:59.152Z,10.60
2023-03-28T08:14:27.484Z,7.83
2023-03-28T08:16:55.846Z,11.30
2023-03-28T08:19:24.176Z,10.40
2023-03-28T08:21:52.511Z,7.80
2023-03-28T08:24:32.897Z,8.23
2023-03-28T08:27:05.570Z,6.77
2023-03-28T08:29:34.081Z,7.90
2023-03-28T08:32:03.985Z,7.43
2023-03-28T08:34:32.399Z,7.47
2023-03-28T08:37:00.840Z,8.50
2023-03-28T08:39:29.168Z,6.77
2023-03-28T08:42:12.341Z,6.03
2023-03-28T08:44:48.506Z,6.03
2023-03-28T08:47:19.072Z,7.37
2023-03-28T08:49:49.079Z,6.47
2023-03-28T08:52:18.958Z,7.83
2023-03-28T08:54:49.795Z,6.93
2023-03-28T08:57:20.647Z,4.70
2023-03-28T08:59:54.376Z,7.00
2023-03-28T09:02:23.471Z,6.83
2023-03-28T09:04:52.960Z,6.07
2023-03-28T09:07:26.552Z,5.30
2023-03-28T09:10:01.396Z,8.73
2023-03-28T09:12:36.525Z,6.30
2023-03-28T09:15:20.906Z,6.27
2023-03-28T09:17:56.606Z,4.53
2023-03-28T09:20:29.990Z,8.27
2023-03-28T09:23:06.151Z,6.53
2023-03-28T09:25:40.277Z,8.67
2023-03-28T09:28:16.947Z,4.47
2023-03-28T09:30:48.798Z,4.53
2023-03-28T09:33:18.648Z,5.57
2023-03-28T09:35:48.253Z,5.27
2023-03-28T09:38:20.268Z,5.43
2023-03-28T09:40:49.352Z,3.37
2023-03-28T09:43:21.230Z,4.87
2023-03-28T09:45:58.488Z,6.93
2023-03-28T09:48:27.856Z,4.80
2023-03-28T09:50:56.151Z,4.60
2023-03-28T09:53:29.935Z,5.00
2023-03-28T09:56:04.818Z,2.47
2023-03-28T09:58:48.722Z,4.87
2023-03-28T10:01:27.200Z,4.13
2023-03-28T10:03:56.767Z,4.57
2023-03-28T10:06:26.647Z,7.17
2023-03-28T10:08:55.220Z,6.83
2023-03-28T10:11:23.890Z,7.13
2023-03-28T10:13:52.803Z,5.13
2023-03-28T10:16:22.667Z,1.77
2023-03-28T10:18:52.414Z,4.77
2023-03-28T10:21:23.713Z,5.20
2023-03-28T10:23:57.612Z,8.63
2023-03-28T10:26:27.614Z,5.90
2023-03-28T10:28:57.852Z,2.53
2023-03-28T10:31:29.286Z,6.43
2023-03-28T10:34:00.422Z,14.20
2023-03-28T10:36:31.725Z,3.10
2023-03-28T10:39:00.570Z,5.27
2023-03-28T10:41:29.602Z,4.83
2023-03-28T10:43:58.427Z,2.37
2023-03-28T10:46:30.386Z,5.17
2023-03-28T10:49:02.757Z,8.47
2023-03-28T10:51:32.616Z,4.00
2023-03-28T10:54:13.527Z,5.83
2023-03-28T10:56:42.673Z,3.67
2023-03-28T10:59:18.000Z,3.53
2023-03-28T11:01:52.066Z,5.60
2023-03-28T11:04:30.898Z,4.10
2023-03-28T11:07:01.460Z,5.50
2023-03-28T11:09:37.264Z,4.73
2023-03-28T11:12:19.910Z,5.53
2023-03-28T11:15:03.528Z,3.23
2023-03-28T11:17:36.905Z,4.60
2023-03-28T11:20:24.783Z,4.80
2023-03-28T11:23:06.339Z,4.13
2023-03-28T11:25:39.509Z,4.53
2023-03-28T11:28:12.526Z,5.60
2023-03-28T11:30:43.231Z,6.13
2023-03-28T11:33:14.145Z,4.53
2023-03-28T11:35:44.112Z,7.23
2023-03-28T11:38:16.138Z,3.97
2023-03-28T11:40:49.063Z,4.20
2023-03-28T11:43:21.264Z,5.90
2023-03-28T11:45:53.211Z,6.67
2023-03-28T11:48:24.424Z,3.10
2023-03-28T11:50:58.803Z,5.57
2023-03-28T11:53:30.441Z,8.00
2023-03-28T11:56:02.649Z,6.00
2023-03-28T11:58:31.668Z,6.63
2023-03-28T12:01:03.600Z,7.27
2023-03-28T12:03:36.668Z,7.87
2023-03-28T12:06:08.307Z,6.03
2023-03-28T12:08:42.255Z,4.87
2023-03-28T12:11:13.441Z,4.43
2023-03-28T12:13:46.783Z,3.97
2023-03-28T12:16:18.955Z,7.80
2023-03-28T12:18:48.689Z,8.07
2023-03-28T12:21:20.601Z,7.37
2023-03-28T12:23:59.470Z,5.97
2023-03-28T12:26:32.906Z,5.53
2023-03-28T12:29:04.342Z,8.93
2023-03-28T12:31:38.596Z,5.30
2023-03-28T12:34:12.147Z,7.83
2023-03-28T12:36:42.799Z,7.67
2023-03-28T12:39:21.140Z,9.67
2023-03-28T12:41:49.523Z,6.90
2023-03-28T12:44:21.041Z,6.00
2023-03-28T12:46:52.987Z,7.30
2023-03-28T12:49:25.387Z,6.07
2023-03-28T12:51:55.110Z,9.90
2023-03-28T12:54:26.708Z,7.63
2023-03-28T12:57:02.902Z,6.97
2023-03-28T12:59:45.520Z,5.30
2023-03-28T13:02:16.420Z,9.40
2023-03-28T13:04:48.669Z,9.47
2023-03-28T13:07:20.993Z,6.03
2023-03-28T13:10:04.625Z,8.40
2023-03-28T13:12:42.202Z,6.67
2023-03-28T13:15:27.272Z,5.20
2023-03-28T13:18:14.278Z,7.40
2023-03-28T13:20:47.128Z,5.67
2023-03-28T13:23:17.754Z,5.67
2023-03-28T13:25:54.546Z,7.30
2023-03-28T13:28:30.598Z,5.80
2023-03-28T13:31:06.718Z,5.90
2023-03-28T13:33:36.702Z,5.77
2023-03-28T13:36:28.988Z,3.57
2023-03-28T13:39:01.866Z,6.03
2023-03-28T13:41:38.104Z,3.23
2023-03-28T13:44:12.168Z,4.03
2023-03-28T13:46:42.296Z,4.87
2023-03-28T13:49:16.237Z,5.17
2023-03-28T13:51:48.850Z,4.67
2023-03-28T13:54:17.660Z,4.63
2023-03-28T13:56:47.219Z,7.90
2023-03-28T13:59:18.168Z,5.60
2023-03-28T14:01:48.533Z,5.40
2023-03-28T14:04:20.925Z,5.10
2023-03-28T14:06:49.579Z,5.00
2023-03-28T14:09:20.998Z,4.87
2023-03-28T14:11:49.578Z,4.83
2023-03-28T14:14:23.505Z,5.50
2023-03-28T14:16:51.827Z,4.80
2023-03-28T14:19:22.485Z,3.97
2023-03-28T14:21:51.108Z,5.07
2023-03-28T14:24:23.139Z,4.87
2023-03-28T14:26:51.849Z,3.47
2023-03-28T14:29:23.052Z,5.73
2023-03-28T14:31:51.450Z,5.17
2023-03-28T14:34:24.135Z,5.23
2023-03-28T14:37:00.768Z,6.03
2023-03-28T14:39:31.326Z,6.07
2023-03-28T14:42:01.229Z,3.97
2023-03-28T14:44:32.148Z,10.57
2023-03-28T14:47:00.702Z,6.60
2023-03-28T14:49:28.984Z,5.77
2023-03-28T14:51:58.186Z,4.80
2023-03-28T14:54:32.548Z,5.00
2023-03-28T14:57:01.456Z,6.90
2023-03-28T14:59:40.753Z,4.10
2023-03-28T15:02:14.312Z,6.17
2023-03-28T15:04:42.615Z,5.03
2023-03-28T15:07:20.790Z,2.20
2023-03-28T15:10:02.792Z,3.57
2023-03-28T15:12:31.012Z,3.37
2023-03-28T15:15:00.651Z,4.43
2023-03-28T15:17:29.016Z,4.43
2023-03-28T15:19:59.911Z,5.07
2023-03-28T15:22:29.864Z,4.20
2023-03-28T15:24:58.937Z,2.87
2023-03-28T15:27:30.844Z,4.17
2023-03-28T15:29:59.652Z,6.87
2023-03-28T15:32:29.911Z,3.73
2023-03-28T15:34:59.291Z,2.40
2023-03-28T15:37:28.072Z,4.10
2023-03-28T15:39:56.535Z,5.07
2023-03-28T15:42:37.193Z,4.27
2023-03-28T15:45:27.066Z,4.77
2023-03-28T15:47:57.195Z,4.57
2023-03-28T15:50:33.086Z,4.17
2023-03-28T15:53:01.979Z,4.63
2023-03-28T15:55:30.311Z,4.43
2023-03-28T15:57:58.906Z,2.97
2023-03-28T16:00:37.989Z,4.53
2023-03-28T16:03:25.166Z,4.43
2023-03-28T16:06:04.483Z,4.63
2023-03-28T16:08:41.084Z,3.40
2023-03-28T16:11:15.486Z,4.97
2023-03-28T16:13:43.944Z,4.60
2023-03-28T16:16:16.912Z,6.03
2023-03-28T16:18:46.672Z,4.00
2023-03-28T16:21:16.617Z,4.23
2023-03-28T16:23:44.829Z,6.13
2023-03-28T16:26:13.865Z,4.33
2023-03-28T16:28:42.249Z,5.93
2023-03-28T16:31:14.279Z,8.00
2023-03-28T16:33:42.739Z,7.23
2023-03-28T16:36:12.912Z,7.43
2023-03-28T16:38:42.728Z,5.77
2023-03-28T16:41:11.095Z,4.73
2023-03-28T16:43:40.078Z,5.13
2023-03-28T16:46:11.023Z,7.50
2023-03-28T16:48:40.620Z,8.10
2023-03-28T16:51:08.897Z,8.17
2023-03-28T16:53:37.917Z,5.10
2023-03-28T16:56:11.879Z,5.67
2023-03-28T16:58:40.670Z,7.73
2023-03-28T17:01:10.536Z,9.93
2023-03-28T17:03:39.105Z,5.43
2023-03-28T17:06:09.026Z,5.47
2023-03-28T17:08:37.283Z,6.03
2023-03-28T17:11:07.262Z,9.23
2023-03-28T17:13:36.875Z,8.33
2023-03-28T17:16:05.425Z,5.37
2023-03-28T17:18:33.807Z,5.93
2023-03-28T17:21:03.493Z,5.50
2023-03-28T17:23:32.866Z,7.57
2023-03-28T17:26:01.525Z,7.03
2023-03-28T17:28:30.169Z,9.60
2023-03-28T17:30:59.936Z,6.80
2023-03-28T17:33:33.268Z,5.43
2023-03-28T17:36:01.926Z,10.73
2023-03-28T17:38:30.883Z,7.23
2023-03-28T17:40:59.150Z,7.77
2023-03-28T17:43:27.412Z,4.93
2023-03-28T17:45:55.932Z,5.27
2023-03-28T17:48:25.849Z,6.20
2023-03-28T17:50:54.891Z,5.10
2023-03-28T17:53:23.138Z,3.70
2023-03-28T17:55:51.388Z,9.57
2023-03-28T17:58:19.801Z,6.67
2023-03-28T18:00:48.049Z,6.30
2023-03-28T18:03:16.795Z,6.60
2023-03-28T18:05:50.960Z,7.73
2023-03-28T18:08:19.254Z,23.20
2023-03-28T18:10:47.666Z,27.53
2023-03-28T18:13:16.099Z,24.10
2023-03-28T18:15:44.536Z,25.57
2023-03-28T18:18:13.320Z,33.77
2023-03-28T18:20:43.601Z,12.70
2023-03-28T18:23:13.938Z,6.90
2023-03-28T18:25:42.194Z,13.80
2023-03-28T18:28:10.892Z,7.07
2023-03-28T18:30:40.458Z,6.23
2023-03-28T18:33:11.598Z,5.10
2023-03-28T18:35:39.888Z,5.80
2023-03-28T18:38:08.218Z,4.17
2023-03-28T18:40:37.879Z,6.87
2023-03-28T18:43:06.758Z,8.10
2023-03-28T18:45:36.182Z,13.47
2023-03-28T18:48:04.646Z,12.53
2023-03-28T18:50:33.046Z,10.93
2023-03-28T18:53:01.456Z,11.93
2023-03-28T18:55:30.749Z,6.07
2023-03-28T18:58:02.291Z,9.30
2023-03-28T19:00:30.567Z,8.93
2023-03-28T19:02:59.031Z,5.03
2023-03-28T19:05:27.439Z,9.47
2023-03-28T19:07:56.906Z,9.47
2023-03-28T19:10:25.950Z,6.03
2023-03-28T19:12:54.544Z,4.37
2023-03-28T19:15:24.088Z,4.50
2023-03-28T19:17:52.412Z,4.63
2023-03-28T19:20:20.751Z,4.90
2023-03-28T19:22:49.014Z,6.13
2023-03-28T19:25:17.245Z,3.97
2023-03-28T19:27:48.310Z,6.27
2023-03-28T19:30:16.749Z,4.10
2023-03-28T19:32:46.477Z,5.13
2023-03-28T19:35:14.744Z,6.70
2023-03-28T19:37:43.000Z,8.17
2023-03-28T19:40:16.354Z,7.97
2023-03-28T19:42:44.585Z,14.03
2023-03-28T19:45:13.561Z,3.13
2023-03-28T19:47:41.949Z,5.07
2023-03-28T19:50:20.813Z,8.10
2023-03-28T19:52:51.686Z,6.60
2023-03-28T19:55:20.038Z,6.17
2023-03-28T19:57:48.273Z,6.50
2023-03-28T20:00:17.259Z,4.13
2023-03-28T20:02:45.861Z,7.40
2023-03-28T20:05:15.529Z,3.33
2023-03-28T20:07:43.794Z,4.70
2023-03-28T20:10:12.400Z,5.70
2023-03-28T20:12:41.057Z,4.30
2023-03-28T20:15:10.375Z,4.67
2023-03-28T20:17:38.780Z,3.83
2023-03-28T20:20:08.259Z,5.03
2023-03-28T20:22:37.838Z,4.40
2023-03-28T20:25:07.260Z,6.27
2023-03-28T20:27:37.166Z,7.60
2023-03-28T20:30:06.813Z,6.43
2023-03-28T20:32:35.369Z,6.17
2023-03-28T20:35:03.631Z,4.60
2023-03-28T20:37:32.340Z,4.33
2023-03-28T20:40:10.223Z,4.97
2023-03-28T20:42:40.749Z,4.20
2023-03-28T20:45:13.852Z,3.33
2023-03-28T20:47:42.856Z,8.03
2023-03-28T20:50:11.720Z,4.07
2023-03-28T20:52:40.644Z,3.20
2023-03-28T20:55:10.659Z,4.73
2023-03-28T20:57:41.764Z,5.63
2023-03-28T21:00:13.287Z,7.60
2023-03-28T21:02:42.769Z,6.90
2023-03-28T21:05:12.459Z,4.73
2023-03-28T21:07:41.085Z,6.13
2023-03-28T21:10:11.731Z,5.57
2023-03-28T21:12:39.918Z,4.60
2023-03-28T21:15:09.002Z,4.97
2023-03-28T21:17:37.277Z,4.27
2023-03-28T21:20:07.154Z,5.87
2023-03-28T21:22:35.674Z,4.00
2023-03-28T21:25:03.927Z,6.43
2023-03-28T21:27:34.624Z,4.97
2023-03-28T21:30:06.899Z,6.30
2023-03-28T21:32:35.329Z,6.80
2023-03-28T21:35:04.052Z,4.27
2023-03-28T21:37:32.674Z,4.03
2023-03-28T21:40:00.867Z,6.77
2023-03-28T21:42:29.058Z,5.93
2023-03-28T21:44:58.622Z,5.53
2023-03-28T21:47:26.828Z,4.83
2023-03-28T21:49:55.031Z,6.30
2023-03-28T21:52:23.432Z,9.10
2023-03-28T21:54:51.622Z,5.10
2023-03-28T21:57:19.857Z,7.63
2023-03-28T21:59:48.085Z,4.97
2023-03-28T22:02:17.985Z,8.17
2023-03-28T22:04:47.099Z,5.30
2023-03-28T22:07:16.223Z,4.87
2023-03-28T22:09:44.563Z,4.03
2023-03-28T22:12:14.731Z,4.77
2023-03-28T22:14:42.947Z,6.10
2023-03-28T22:17:11.175Z,9.57
2023-03-28T22:19:40.728Z,5.20
2023-03-28T22:22:11.035Z,5.60
2023-03-28T22:24:39.300Z,5.97
2023-03-28T22:27:07.604Z,8.23
2023-03-28T22:29:35.771Z,3.87
2023-03-28T22:32:04.229Z,4.23
2023-03-28T22:34:32.604Z,4.50
2023-03-28T22:37:02.142Z,5.37
2023-03-28T22:39:30.336Z,5.90
2023-03-28T22:41:58.495Z,5.17
2023-03-28T22:44:27.224Z,6.70
2023-03-28T22:47:01.924Z,11.03
2023-03-28T22:49:30.346Z,5.63
2023-03-28T22:52:01.832Z,7.07
2023-03-28T22:54:32.336Z,6.53
2023-03-28T22:57:01.089Z,9.30
2023-03-28T22:59:29.920Z,7.40
2023-03-28T23:01:58.113Z,5.80
2023-03-28T23:04:27.165Z,7.97
2023-03-28T23:06:55.434Z,6.80
2023-03-28T23:09:25.321Z,5.77
2023-03-28T23:11:56.936Z,6.60
2023-03-28T23:14:25.119Z,5.27
2023-03-28T23:16:53.821Z,5.73
2023-03-28T23:19:22.465Z,6.63
2023-03-28T23:21:50.662Z,5.90
2023-03-28T23:24:18.898Z,6.17
2023-03-28T23:26:47.115Z,8.13
2023-03-28T23:29:16.717Z,6.60
2023-03-28T23:31:44.907Z,7.00
2023-03-28T23:34:13.202Z,7.17
2023-03-28T23:36:42.189Z,10.50
2023-03-28T23:39:11.472Z,7.40
2023-03-28T23:41:39.669Z,8.07
2023-03-28T23:44:07.860Z,7.37
2023-03-28T23:46:38.559Z,7.97
2023-03-28T23:49:06.837Z,9.87
2023-03-28T23:51:35.085Z,9.67
2023-03-28T23:54:03.277Z,8.17
2023-03-28T23:56:31.759Z,8.53
2023-03-28T23:58:59.950Z,8.77
